Time;durP1;ratioP1;P1;durP2;ratioP2;P2;SDS_P1;SDS_P2;PMS_P1;PMS_P2;Temp;Humidity;BMP_temperature;BMP_pressure;BME280_temperature;BME280_humidity;BME280_pressure;Samples;Min_cycle;Max_cycle;Signal;HPM_P1;HPM_P2
2022/09/24 00:01:08;;;;;;;3.25;2.45;;;;;;;;;;615166;231;26556;-62
2022/09/24 00:03:36;;;;;;;2.20;2.10;;;;;;;;;;616713;231;26830;-65
2022/09/24 00:06:05;;;;;;;2.25;2.15;;;;;;;;;;615230;228;26564;-64
2022/09/24 00:08:34;;;;;;;2.85;2.12;;;;;;;;;;617439;230;26644;-65
2022/09/24 00:11:03;;;;;;;2.37;2.22;;;;;;;;;;616156;228;26605;-65
2022/09/24 00:13:32;;;;;;;2.37;2.20;;;;;;;;;;619336;230;26657;-65
2022/09/24 00:16:01;;;;;;;2.53;2.33;;;;;;;;;;616290;231;26609;-65
2022/09/24 00:18:29;;;;;;;2.70;2.50;;;;;;;;;;615953;231;26562;-65
2022/09/24 00:20:58;;;;;;;2.30;2.20;;;;;;;;;;617244;230;26573;-65
2022/09/24 00:23:27;;;;;;;3.97;2.58;;;;;;;;;;617325;230;26637;-65
2022/09/24 00:28:31;;;;;;;2.42;2.22;;;;;;;;;;616376;231;26643;-65
2022/09/24 00:30:59;;;;;;;2.40;2.20;;;;;;;;;;617257;230;26832;-65
2022/09/24 00:33:28;;;;;;;2.28;2.17;;;;;;;;;;617012;230;26588;-65
2022/09/24 00:35:57;;;;;;;2.55;2.35;;;;;;;;;;615344;228;27468;-65
2022/09/24 00:38:26;;;;;;;2.00;1.90;;;;;;;;;;616011;230;26555;-65
2022/09/24 00:40:55;;;;;;;2.12;2.03;;;;;;;;;;616743;231;26606;-65
2022/09/24 00:43:27;;;;;;;2.00;1.90;;;;;;;;;;618861;231;26607;-66
2022/09/24 00:45:56;;;;;;;2.03;1.92;;;;;;;;;;621382;231;26569;-65
2022/09/24 00:48:25;;;;;;;2.37;2.03;;;;;;;;;;619476;231;26797;-66
2022/09/24 00:50:54;;;;;;;2.53;2.17;;;;;;;;;;617761;228;26622;-65
2022/09/24 00:53:24;;;;;;;2.28;2.17;;;;;;;;;;615510;231;26608;-65
2022/09/24 00:55:53;;;;;;;2.08;1.98;;;;;;;;;;615472;231;26574;-65
2022/09/24 00:58:21;;;;;;;2.42;2.22;;;;;;;;;;614870;231;26572;-65
2022/09/24 01:00:49;;;;;;;2.45;2.25;;;;;;;;;;617725;231;26654;-65
2022/09/24 01:03:19;;;;;;;2.33;2.12;;;;;;;;;;616280;231;26565;-65
2022/09/24 01:05:48;;;;;;;2.40;2.30;;;;;;;;;;618532;231;26652;-65
2022/09/24 01:08:17;;;;;;;2.35;2.20;;;;;;;;;;615203;231;26734;-65
2022/09/24 01:10:50;;;;;;;1.95;1.85;;;;;;;;;;616397;231;26589;-66
2022/09/24 01:13:33;;;;;;;2.65;2.10;;;;;;;;;;616191;231;26577;-65
2022/09/24 01:16:03;;;;;;;2.10;2.00;;;;;;;;;;602691;231;26648;-65
2022/09/24 01:18:35;;;;;;;2.50;2.30;;;;;;;;;;617120;231;26558;-65
2022/09/24 01:21:04;;;;;;;2.40;2.20;;;;;;;;;;617162;231;26576;-65
2022/09/24 01:23:34;;;;;;;2.47;2.28;;;;;;;;;;615502;231;26658;-66
2022/09/24 01:26:03;;;;;;;2.40;2.30;;;;;;;;;;615367;231;26805;-66
2022/09/24 01:28:32;;;;;;;2.45;2.35;;;;;;;;;;615709;231;26575;-65
2022/09/24 01:31:01;;;;;;;2.28;2.17;;;;;;;;;;615641;231;26865;-66
2022/09/24 01:33:29;;;;;;;2.70;2.20;;;;;;;;;;616691;230;26591;-65
2022/09/24 01:35:58;;;;;;;2.10;2.00;;;;;;;;;;616580;230;26681;-66
2022/09/24 01:38:28;;;;;;;2.05;1.95;;;;;;;;;;618677;230;26581;-66
2022/09/24 01:40:57;;;;;;;2.12;2.03;;;;;;;;;;616141;231;26617;-66
2022/09/24 01:43:26;;;;;;;2.10;1.90;;;;;;;;;;617845;230;27287;-65
2022/09/24 01:45:58;;;;;;;2.10;2.00;;;;;;;;;;617613;230;26556;-67
2022/09/24 01:48:23;;;;;;;2.58;2.12;;;;;;;;;;614799;231;26573;-66
2022/09/24 01:50:54;;;;;;;2.12;2.03;;;;;;;;;;618338;230;26570;-66
2022/09/24 01:53:23;;;;;;;2.08;1.98;;;;;;;;;;615278;231;26596;-66
2022/09/24 01:55:52;;;;;;;2.17;2.08;;;;;;;;;;616706;230;26544;-66
2022/09/24 01:58:23;;;;;;;2.28;2.15;;;;;;;;;;616926;230;26694;-66
2022/09/24 02:00:52;;;;;;;2.25;2.05;;;;;;;;;;614481;231;26616;-66
2022/09/24 02:03:21;;;;;;;2.12;2.00;;;;;;;;;;615371;231;26652;-66
2022/09/24 02:05:51;;;;;;;2.40;2.20;;;;;;;;;;617189;231;26619;-66
2022/09/24 02:08:21;;;;;;;2.10;2.00;;;;;;;;;;615128;231;26581;-66
2022/09/24 02:10:50;;;;;;;2.58;2.37;;;;;;;;;;614509;231;26593;-66
2022/09/24 02:13:19;;;;;;;2.05;1.95;;;;;;;;;;613971;234;26596;-66
2022/09/24 02:15:47;;;;;;;1.90;1.80;;;;;;;;;;615199;231;26806;-66
2022/09/24 02:18:16;;;;;;;2.25;2.12;;;;;;;;;;617140;231;26640;-66
2022/09/24 02:20:45;;;;;;;2.45;2.25;;;;;;;;;;614580;231;26924;-66
2022/09/24 02:23:14;;;;;;;2.30;2.10;;;;;;;;;;614593;231;26644;-66
2022/09/24 02:25:43;;;;;;;2.55;2.30;;;;;;;;;;616652;230;26561;-65
2022/09/24 02:28:12;;;;;;;2.15;2.00;;;;;;;;;;615296;231;26774;-66
2022/09/24 02:30:41;;;;;;;2.05;1.92;;;;;;;;;;618960;231;26662;-65
2022/09/24 02:34:19;;;;;;;2.20;2.10;;;;;;;;;;615597;231;26841;-66
2022/09/24 02:35:39;;;;;;;2.05;1.95;;;;;;;;;;614562;231;26599;-66
2022/09/24 02:38:07;;;;;;;1.90;1.80;;;;;;;;;;615423;231;26674;-65
2022/09/24 02:40:36;;;;;;;2.10;2.00;;;;;;;;;;616903;230;26563;-65
2022/09/24 02:43:05;;;;;;;2.10;2.00;;;;;;;;;;618583;230;26580;-65
2022/09/24 02:45:34;;;;;;;2.40;2.15;;;;;;;;;;616165;230;26612;-66
2022/09/24 02:48:03;;;;;;;2.17;2.05;;;;;;;;;;616076;231;26573;-67
2022/09/24 02:50:32;;;;;;;2.47;2.28;;;;;;;;;;618099;230;26928;-66
2022/09/24 02:53:01;;;;;;;2.53;2.40;;;;;;;;;;615038;229;26630;-67
2022/09/24 02:55:30;;;;;;;2.50;1.90;;;;;;;;;;615401;231;26572;-66
2022/09/24 02:57:59;;;;;;;2.00;1.90;;;;;;;;;;614284;233;27136;-66
2022/09/24 03:00:27;;;;;;;2.37;2.17;;;;;;;;;;616535;230;26575;-66
2022/09/24 03:02:56;;;;;;;2.12;2.03;;;;;;;;;;615094;231;26592;-66
2022/09/24 03:05:25;;;;;;;2.10;2.00;;;;;;;;;;617164;230;26576;-66
2022/09/24 03:07:55;;;;;;;1.83;1.73;;;;;;;;;;616128;230;26548;-66
2022/09/24 03:10:23;;;;;;;2.40;2.20;;;;;;;;;;615276;231;26633;-66
2022/09/24 03:12:52;;;;;;;2.15;1.87;;;;;;;;;;617804;231;26640;-66
2022/09/24 03:15:21;;;;;;;2.17;1.98;;;;;;;;;;615936;231;26811;-66
2022/09/24 03:17:50;;;;;;;2.00;1.90;;;;;;;;;;615502;231;26575;-66
2022/09/24 03:20:19;;;;;;;1.98;1.87;;;;;;;;;;616344;231;26579;-66
2022/09/24 03:22:50;;;;;;;1.92;1.83;;;;;;;;;;615590;231;26602;-66
2022/09/24 03:25:19;;;;;;;2.15;2.00;;;;;;;;;;616862;231;26625;-66
2022/09/24 03:27:47;;;;;;;2.20;2.10;;;;;;;;;;616596;231;26620;-66
2022/09/24 03:32:51;;;;;;;2.03;1.92;;;;;;;;;;614756;230;26587;-66
2022/09/24 03:35:20;;;;;;;1.90;1.80;;;;;;;;;;614687;231;26577;-65
2022/09/24 03:37:49;;;;;;;2.00;1.90;;;;;;;;;;616769;231;26892;-66
2022/09/24 03:40:18;;;;;;;2.05;1.95;;;;;;;;;;614810;228;26564;-65
2022/09/24 03:42:47;;;;;;;1.87;1.70;;;;;;;;;;614895;231;26827;-65
2022/09/24 03:45:16;;;;;;;2.40;2.25;;;;;;;;;;616194;231;26556;-65
2022/09/24 03:47:45;;;;;;;1.98;1.87;;;;;;;;;;617510;229;26825;-65
2022/09/24 03:50:15;;;;;;;1.98;1.87;;;;;;;;;;614842;233;28553;-65
2022/09/24 03:52:43;;;;;;;2.20;2.10;;;;;;;;;;620419;230;26793;-66
2022/09/24 03:55:13;;;;;;;2.00;1.90;;;;;;;;;;617439;230;26566;-65
2022/09/24 03:57:42;;;;;;;1.95;1.85;;;;;;;;;;616127;231;26852;-65
2022/09/24 04:00:11;;;;;;;1.98;1.87;;;;;;;;;;616017;231;26630;-65
2022/09/24 04:02:39;;;;;;;2.10;2.00;;;;;;;;;;616017;231;26601;-66
2022/09/24 04:05:08;;;;;;;1.83;1.73;;;;;;;;;;616954;230;26839;-66
2022/09/24 04:07:38;;;;;;;2.12;1.73;;;;;;;;;;615706;231;26592;-66
2022/09/24 04:10:07;;;;;;;1.90;1.80;;;;;;;;;;616515;230;26545;-66
2022/09/24 04:12:36;;;;;;;1.87;1.77;;;;;;;;;;614962;231;26600;-65
2022/09/24 04:15:05;;;;;;;2.03;1.92;;;;;;;;;;616718;230;26778;-66
2022/09/24 04:17:34;;;;;;;1.90;1.80;;;;;;;;;;615332;230;26570;-66
2022/09/24 04:20:03;;;;;;;1.92;1.83;;;;;;;;;;617260;230;26808;-65
2022/09/24 04:22:32;;;;;;;1.92;1.83;;;;;;;;;;616945;230;26575;-65
2022/09/24 04:25:02;;;;;;;2.17;2.08;;;;;;;;;;616091;230;27234;-65
2022/09/24 04:27:30;;;;;;;2.17;2.08;;;;;;;;;;615811;231;26575;-65
2022/09/24 04:29:59;;;;;;;1.90;1.80;;;;;;;;;;616146;231;27286;-65
2022/09/24 04:32:28;;;;;;;1.77;1.67;;;;;;;;;;615702;231;26564;-65
2022/09/24 04:34:57;;;;;;;2.00;1.90;;;;;;;;;;616277;231;26576;-65
2022/09/24 04:37:25;;;;;;;1.77;1.67;;;;;;;;;;616104;231;26525;-65
2022/09/24 04:39:54;;;;;;;2.15;1.98;;;;;;;;;;615286;231;26576;-66
2022/09/24 04:42:23;;;;;;;1.90;1.80;;;;;;;;;;618236;231;26629;-65
2022/09/24 04:44:52;;;;;;;1.95;1.85;;;;;;;;;;613926;234;26561;-65
2022/09/24 04:47:23;;;;;;;1.85;1.75;;;;;;;;;;617641;231;26782;-65
2022/09/24 04:49:50;;;;;;;1.85;1.75;;;;;;;;;;617702;231;26615;-65
2022/09/24 04:52:19;;;;;;;2.03;1.90;;;;;;;;;;615485;231;26786;-65
2022/09/24 04:54:47;;;;;;;1.98;1.80;;;;;;;;;;615383;230;26564;-66
2022/09/24 04:57:16;;;;;;;1.77;1.62;;;;;;;;;;615119;231;26585;-65
2022/09/24 04:59:45;;;;;;;2.00;1.90;;;;;;;;;;616251;231;26627;-65
2022/09/24 05:02:14;;;;;;;1.67;1.58;;;;;;;;;;617646;231;26571;-65
2022/09/24 05:04:43;;;;;;;1.85;1.75;;;;;;;;;;617758;230;26545;-65
2022/09/24 05:07:12;;;;;;;1.83;1.73;;;;;;;;;;616168;231;26530;-66
2022/09/24 05:09:40;;;;;;;1.90;1.80;;;;;;;;;;614517;233;26789;-65
2022/09/24 05:12:10;;;;;;;1.85;1.75;;;;;;;;;;616217;231;26611;-65
2022/09/24 05:14:38;;;;;;;2.40;2.20;;;;;;;;;;616390;231;26944;-65
2022/09/24 05:17:07;;;;;;;2.10;2.00;;;;;;;;;;616721;230;26625;-66
2022/09/24 05:19:36;;;;;;;2.00;1.90;;;;;;;;;;615554;231;26536;-65
2022/09/24 05:22:05;;;;;;;1.87;1.77;;;;;;;;;;615074;231;26800;-65
2022/09/24 05:24:33;;;;;;;1.80;1.70;;;;;;;;;;616580;230;26607;-66
2022/09/24 05:27:08;;;;;;;1.73;1.62;;;;;;;;;;617295;230;26790;-65
2022/09/24 05:29:38;;;;;;;2.00;1.90;;;;;;;;;;616756;230;26570;-65
2022/09/24 05:32:07;;;;;;;2.10;2.00;;;;;;;;;;617523;230;26927;-64
2022/09/24 05:34:36;;;;;;;1.90;1.80;;;;;;;;;;614852;231;26604;-65
2022/09/24 05:37:04;;;;;;;2.05;1.95;;;;;;;;;;616733;231;27260;-65
2022/09/24 05:39:33;;;;;;;2.20;2.10;;;;;;;;;;615800;231;26577;-65
2022/09/24 05:42:03;;;;;;;2.00;1.90;;;;;;;;;;616633;231;26578;-65
2022/09/24 05:44:31;;;;;;;1.87;1.77;;;;;;;;;;614564;231;26867;-65
2022/09/24 05:47:00;;;;;;;1.75;1.75;;;;;;;;;;617481;231;26861;-65
2022/09/24 05:49:29;;;;;;;1.85;1.80;;;;;;;;;;616886;231;26569;-65
2022/09/24 05:51:58;;;;;;;2.00;1.90;;;;;;;;;;615118;231;26561;-65
2022/09/24 05:54:26;;;;;;;1.80;1.70;;;;;;;;;;616905;231;26572;-66
2022/09/24 05:56:55;;;;;;;2.35;2.20;;;;;;;;;;616494;228;26800;-64
2022/09/24 05:59:24;;;;;;;2.10;1.90;;;;;;;;;;614664;231;26584;-64
2022/09/24 06:01:53;;;;;;;1.98;1.87;;;;;;;;;;616323;231;26862;-65
2022/09/24 06:04:22;;;;;;;1.85;1.75;;;;;;;;;;618767;231;26664;-65
2022/09/24 06:06:52;;;;;;;1.75;1.70;;;;;;;;;;615139;231;26559;-65
2022/09/24 06:09:20;;;;;;;1.90;1.80;;;;;;;;;;614494;232;26838;-66
2022/09/24 06:11:51;;;;;;;2.03;1.92;;;;;;;;;;618393;230;26611;-65
2022/09/24 06:14:18;;;;;;;1.90;1.80;;;;;;;;;;617280;230;26951;-65
2022/09/24 06:16:47;;;;;;;1.85;1.75;;;;;;;;;;614843;233;26581;-65
2022/09/24 06:19:15;;;;;;;1.80;1.70;;;;;;;;;;615371;231;26810;-66
2022/09/24 06:21:44;;;;;;;2.00;1.90;;;;;;;;;;617294;227;26623;-65
2022/09/24 06:24:14;;;;;;;2.00;1.90;;;;;;;;;;617555;230;26593;-66
2022/09/24 06:26:42;;;;;;;2.10;1.90;;;;;;;;;;615812;231;26555;-65
2022/09/24 06:29:11;;;;;;;1.92;1.83;;;;;;;;;;616347;230;26565;-65
2022/09/24 06:31:40;;;;;;;1.83;1.73;;;;;;;;;;617136;230;26810;-65
2022/09/24 06:34:09;;;;;;;2.00;1.90;;;;;;;;;;616177;231;26588;-66
2022/09/24 06:36:39;;;;;;;1.90;1.80;;;;;;;;;;616747;230;26796;-66
2022/09/24 06:39:06;;;;;;;2.08;1.90;;;;;;;;;;616078;231;26565;-66
2022/09/24 06:41:35;;;;;;;2.10;2.00;;;;;;;;;;614933;231;26572;-66
2022/09/24 06:44:04;;;;;;;1.90;1.80;;;;;;;;;;615928;230;26816;-65
2022/09/24 06:46:33;;;;;;;1.90;1.80;;;;;;;;;;617041;231;26564;-66
2022/09/24 06:49:02;;;;;;;1.52;1.45;;;;;;;;;;615415;231;26797;-66
2022/09/24 06:51:30;;;;;;;1.90;1.80;;;;;;;;;;615661;229;26591;-66
2022/09/24 06:53:59;;;;;;;1.83;1.73;;;;;;;;;;618035;231;26594;-65
2022/09/24 06:56:29;;;;;;;1.73;1.62;;;;;;;;;;616757;231;26617;-66
2022/09/24 06:58:57;;;;;;;2.00;1.90;;;;;;;;;;614825;234;26561;-65
2022/09/24 07:01:26;;;;;;;1.73;1.62;;;;;;;;;;615561;234;26549;-65
2022/09/24 07:03:55;;;;;;;1.80;1.70;;;;;;;;;;615805;234;26596;-65
2022/09/24 07:06:24;;;;;;;47.28;11.75;;;;;;;;;;615598;234;26803;-69
2022/09/24 07:08:55;;;;;;;123.03;25.23;;;;;;;;;;615654;234;26578;-69
2022/09/24 07:11:22;;;;;;;1999.90;466.88;;;;;;;;;;615354;234;26584;-70
2022/09/24 07:13:50;;;;;;;1999.90;557.33;;;;;;;;;;615640;234;26822;-71
2022/09/24 07:16:19;;;;;;;1999.90;495.05;;;;;;;;;;615538;234;26592;-67
2022/09/24 07:18:48;;;;;;;1100.50;95.75;;;;;;;;;;615684;234;26563;-67
2022/09/24 07:21:17;;;;;;;17.73;13.32;;;;;;;;;;616338;231;26809;-67
2022/09/24 07:23:46;;;;;;;18.20;9.57;;;;;;;;;;616957;233;26803;-67
2022/09/24 07:26:14;;;;;;;18.20;11.20;;;;;;;;;;616663;233;26626;-69
2022/09/24 07:28:43;;;;;;;29.12;14.35;;;;;;;;;;616581;233;26793;-69
2022/09/24 07:31:12;;;;;;;20.83;10.60;;;;;;;;;;616238;233;26564;-69
2022/09/24 07:33:41;;;;;;;17.45;8.40;;;;;;;;;;616349;233;26954;-67
2022/09/24 07:36:10;;;;;;;18.45;7.72;;;;;;;;;;616257;233;26567;-69
2022/09/24 07:38:39;;;;;;;14.52;8.07;;;;;;;;;;616242;233;26564;-69
2022/09/24 07:41:08;;;;;;;24.40;9.43;;;;;;;;;;615795;233;27060;-69
2022/09/24 07:43:37;;;;;;;16.80;8.65;;;;;;;;;;616807;230;26633;-70
2022/09/24 07:46:06;;;;;;;11.85;5.95;;;;;;;;;;615647;231;26927;-70
2022/09/24 07:48:34;;;;;;;15.10;7.15;;;;;;;;;;617266;230;26555;-71
2022/09/24 07:51:05;;;;;;;14.43;7.70;;;;;;;;;;617267;230;26552;-71
2022/09/24 07:53:32;;;;;;;14.55;7.75;;;;;;;;;;618164;230;26859;-71
2022/09/24 07:56:01;;;;;;;12.82;7.80;;;;;;;;;;616352;230;26565;-70
2022/09/24 07:58:30;;;;;;;15.35;7.80;;;;;;;;;;616540;231;26544;-70
2022/09/24 08:00:59;;;;;;;13.82;7.85;;;;;;;;;;618334;231;26864;-69
2022/09/24 08:03:27;;;;;;;14.50;7.78;;;;;;;;;;617845;231;26601;-69
2022/09/24 08:05:58;;;;;;;12.90;7.65;;;;;;;;;;619024;231;26861;-69
2022/09/24 08:08:25;;;;;;;11.65;7.30;;;;;;;;;;614258;228;26532;-70
2022/09/24 08:10:54;;;;;;;10.40;7.00;;;;;;;;;;617375;231;26575;-71
2022/09/24 08:13:23;;;;;;;15.13;6.97;;;;;;;;;;616482;231;26556;-70
2022/09/24 08:15:58;;;;;;;15.18;7.55;;;;;;;;;;617473;231;26534;-70
2022/09/24 08:18:25;;;;;;;16.50;8.25;;;;;;;;;;617251;230;26546;-70
2022/09/24 08:20:54;;;;;;;10.35;6.85;;;;;;;;;;616826;231;26890;-71
2022/09/24 08:23:23;;;;;;;8.93;7.20;;;;;;;;;;615315;231;26561;-69
2022/09/24 08:25:52;;;;;;;9.43;6.68;;;;;;;;;;618107;231;27088;-69
2022/09/24 08:28:21;;;;;;;10.35;6.90;;;;;;;;;;617227;231;26595;-70
2022/09/24 08:30:50;;;;;;;7.40;5.82;;;;;;;;;;617177;231;26543;-70
2022/09/24 08:33:19;;;;;;;7.85;6.55;;;;;;;;;;616116;231;26564;-70
2022/09/24 08:35:47;;;;;;;6.72;6.00;;;;;;;;;;615592;233;26813;-71
2022/09/24 08:38:16;;;;;;;6.28;4.85;;;;;;;;;;620317;230;26564;-70
2022/09/24 08:40:45;;;;;;;7.62;5.95;;;;;;;;;;619209;230;26815;-70
2022/09/24 08:43:20;;;;;;;5.35;4.85;;;;;;;;;;622501;230;26577;-70
2022/09/24 08:48:23;;;;;;;5.35;4.85;;;;;;;;;;619466;231;26649;-69
2022/09/24 08:50:57;;;;;;;8.73;5.93;;;;;;;;;;614311;233;26843;-68
2022/09/24 08:53:25;;;;;;;10.88;6.28;;;;;;;;;;613523;233;26651;-68
2022/09/24 08:55:53;;;;;;;10.52;4.03;;;;;;;;;;614562;233;26946;-68
2022/09/24 08:58:22;;;;;;;8.43;4.25;;;;;;;;;;615111;233;26601;-67
2022/09/24 09:00:58;;;;;;;5.07;3.70;;;;;;;;;;613803;233;26541;-68
2022/09/24 09:03:44;;;;;;;5.68;3.90;;;;;;;;;;619397;231;26817;-67
2022/09/24 09:06:28;;;;;;;7.68;4.22;;;;;;;;;;613178;233;26599;-67
2022/09/24 09:08:58;;;;;;;4.72;3.75;;;;;;;;;;609756;232;26840;-66
2022/09/24 09:11:27;;;;;;;6.82;3.90;;;;;;;;;;618143;231;26622;-67
2022/09/24 09:13:56;;;;;;;5.03;3.25;;;;;;;;;;613167;231;26864;-67
2022/09/24 09:16:25;;;;;;;7.15;3.80;;;;;;;;;;613048;233;26576;-67
2022/09/24 09:18:53;;;;;;;5.85;3.80;;;;;;;;;;618021;231;26594;-67
2022/09/24 09:21:24;;;;;;;5.15;3.62;;;;;;;;;;615006;231;26579;-69
2022/09/24 09:23:53;;;;;;;6.25;3.33;;;;;;;;;;620386;231;26611;-68
2022/09/24 09:26:22;;;;;;;4.30;3.90;;;;;;;;;;621191;231;26590;-68
2022/09/24 09:28:51;;;;;;;10.35;4.20;;;;;;;;;;616735;231;26578;-68
2022/09/24 09:31:30;;;;;;;6.18;4.10;;;;;;;;;;615592;231;26646;-68
2022/09/24 09:34:01;;;;;;;5.62;3.95;;;;;;;;;;614700;234;26612;-67
2022/09/24 09:36:30;;;;;;;4.72;4.32;;;;;;;;;;612949;234;26539;-67
2022/09/24 09:39:04;;;;;;;6.78;4.28;;;;;;;;;;614361;234;26571;-66
2022/09/24 09:41:34;;;;;;;5.75;4.53;;;;;;;;;;612473;234;26593;-68
2022/09/24 09:44:07;;;;;;;7.03;4.45;;;;;;;;;;620007;229;27130;-67
2022/09/24 09:46:36;;;;;;;4.55;4.03;;;;;;;;;;614855;233;26570;-67
2022/09/24 09:49:05;;;;;;;5.93;4.03;;;;;;;;;;614657;228;26606;-67
2022/09/24 09:51:36;;;;;;;4.35;3.95;;;;;;;;;;615587;233;26809;-67
2022/09/24 09:54:03;;;;;;;5.68;3.87;;;;;;;;;;615756;233;26593;-68
2022/09/24 09:56:33;;;;;;;4.90;4.10;;;;;;;;;;614074;233;26623;-67
2022/09/24 09:59:20;;;;;;;7.60;3.95;;;;;;;;;;614520;233;26635;-66
2022/09/24 10:01:54;;;;;;;6.30;4.53;;;;;;;;;;615551;233;26563;-66
2022/09/24 10:04:38;;;;;;;6.00;4.45;;;;;;;;;;613168;233;26851;-66
2022/09/24 10:07:08;;;;;;;5.80;3.70;;;;;;;;;;618931;231;26548;-67
2022/09/24 10:09:37;;;;;;;6.53;3.72;;;;;;;;;;614656;231;26568;-67
2022/09/24 10:12:07;;;;;;;7.68;4.10;;;;;;;;;;619909;231;26822;-67
2022/09/24 10:14:35;;;;;;;5.32;3.70;;;;;;;;;;613735;233;26580;-67
2022/09/24 10:17:05;;;;;;;6.78;4.20;;;;;;;;;;614198;233;26818;-67
2022/09/24 10:19:33;;;;;;;4.90;4.22;;;;;;;;;;615011;233;26633;-67
2022/09/24 10:22:06;;;;;;;6.75;4.18;;;;;;;;;;613452;231;26584;-67
2022/09/24 10:24:35;;;;;;;4.47;4.07;;;;;;;;;;617983;231;26832;-67
2022/09/24 10:27:11;;;;;;;4.53;4.05;;;;;;;;;;616981;231;26624;-67
2022/09/24 10:32:14;;;;;;;7.40;3.85;;;;;;;;;;620344;231;26641;-67
2022/09/24 10:34:43;;;;;;;4.25;3.85;;;;;;;;;;622089;231;26920;-67
2022/09/24 10:37:12;;;;;;;4.93;4.37;;;;;;;;;;616088;231;26639;-67
2022/09/24 10:39:41;;;;;;;4.43;4.03;;;;;;;;;;614930;234;26554;-67
2022/09/24 10:42:15;;;;;;;4.62;4.15;;;;;;;;;;613896;231;26558;-67
2022/09/24 10:44:44;;;;;;;4.62;4.22;;;;;;;;;;617592;231;26559;-67
2022/09/24 10:47:14;;;;;;;4.75;4.25;;;;;;;;;;614374;234;26569;-67
2022/09/24 10:49:59;;;;;;;5.05;4.57;;;;;;;;;;619539;231;26605;-66
2022/09/24 10:52:29;;;;;;;7.28;4.93;;;;;;;;;;616355;231;26866;-67
2022/09/24 10:54:58;;;;;;;4.00;3.58;;;;;;;;;;613554;234;26914;-67
2022/09/24 10:57:28;;;;;;;4.85;4.45;;;;;;;;;;614410;231;26576;-67
2022/09/24 10:59:56;;;;;;;5.32;4.35;;;;;;;;;;616517;231;26570;-66
2022/09/24 11:02:26;;;;;;;9.27;4.78;;;;;;;;;;620025;230;26807;-65
2022/09/24 11:04:56;;;;;;;7.12;4.53;;;;;;;;;;620300;230;26583;-65
2022/09/24 11:07:40;;;;;;;7.30;3.78;;;;;;;;;;617077;230;26806;-67
2022/09/24 11:10:15;;;;;;;9.35;4.55;;;;;;;;;;603323;233;26804;-64
2022/09/24 11:12:45;;;;;;;7.07;4.35;;;;;;;;;;617697;227;26610;-66
2022/09/24 11:15:14;;;;;;;5.37;4.53;;;;;;;;;;620051;230;26595;-66
2022/09/24 11:17:46;;;;;;;6.07;4.22;;;;;;;;;;621421;230;27061;-66
2022/09/24 11:20:15;;;;;;;6.45;4.12;;;;;;;;;;615664;230;26579;-66
2022/09/24 11:22:56;;;;;;;5.35;4.20;;;;;;;;;;616635;231;26551;-65
2022/09/24 11:25:37;;;;;;;13.52;4.55;;;;;;;;;;615481;231;26538;-66
2022/09/24 11:28:07;;;;;;;9.13;4.43;;;;;;;;;;617098;230;26586;-66
2022/09/24 11:30:46;;;;;;;5.15;4.03;;;;;;;;;;614564;230;26608;-65
2022/09/24 11:33:10;;;;;;;5.37;4.00;;;;;;;;;;614331;231;26953;-64
2022/09/24 11:35:39;;;;;;;6.12;4.47;;;;;;;;;;614289;231;26576;-64
2022/09/24 11:38:08;;;;;;;4.57;4.12;;;;;;;;;;615375;231;26626;-63
2022/09/24 11:40:37;;;;;;;9.65;4.37;;;;;;;;;;622628;231;26867;-62
2022/09/24 11:43:10;;;;;;;9.85;4.90;;;;;;;;;;615905;231;26627;-63
2022/09/24 11:45:41;;;;;;;5.00;4.20;;;;;;;;;;616456;230;26886;-63
2022/09/24 11:48:10;;;;;;;7.35;4.37;;;;;;;;;;612608;234;26558;-63
2022/09/24 11:50:40;;;;;;;6.28;3.62;;;;;;;;;;615243;231;26797;-64
2022/09/24 11:53:08;;;;;;;6.35;4.35;;;;;;;;;;615553;231;26647;-65
2022/09/24 11:55:48;;;;;;;5.70;4.47;;;;;;;;;;614601;234;26881;-65
2022/09/24 11:58:26;;;;;;;6.65;4.10;;;;;;;;;;621519;231;26621;-64
2022/09/24 12:00:55;;;;;;;4.12;3.80;;;;;;;;;;618543;231;26595;-64
2022/09/24 12:03:24;;;;;;;5.05;4.20;;;;;;;;;;615968;231;26660;-64
2022/09/24 12:05:54;;;;;;;5.93;4.10;;;;;;;;;;615474;231;26808;-64
2022/09/24 12:08:26;;;;;;;4.25;3.95;;;;;;;;;;622514;228;26837;-64
2022/09/24 12:10:55;;;;;;;4.80;3.97;;;;;;;;;;615120;231;26635;-64
2022/09/24 12:13:26;;;;;;;6.62;4.07;;;;;;;;;;614350;231;26607;-64
2022/09/24 12:16:03;;;;;;;5.10;3.97;;;;;;;;;;616487;230;26809;-64
2022/09/24 12:18:46;;;;;;;5.45;3.70;;;;;;;;;;615922;230;26622;-64
2022/09/24 12:21:16;;;;;;;4.20;3.87;;;;;;;;;;614072;233;26770;-64
2022/09/24 12:23:45;;;;;;;4.55;4.20;;;;;;;;;;615553;231;26591;-64
2022/09/24 12:26:15;;;;;;;4.25;3.55;;;;;;;;;;619064;231;26576;-64
2022/09/24 12:33:53;;;;;;;4.37;3.72;;;;;;;;;;616175;228;26791;-64
2022/09/24 12:36:26;;;;;;;4.75;4.32;;;;;;;;;;613140;233;26538;-65
2022/09/24 12:38:55;;;;;;;4.70;4.30;;;;;;;;;;614019;230;26576;-65
2022/09/24 12:41:29;;;;;;;4.15;3.78;;;;;;;;;;615866;230;26532;-65
2022/09/24 12:44:13;;;;;;;3.70;3.50;;;;;;;;;;614373;231;26840;-65
2022/09/24 12:46:42;;;;;;;4.45;4.05;;;;;;;;;;612780;231;26957;-65
2022/09/24 12:49:14;;;;;;;4.40;4.00;;;;;;;;;;612530;234;26612;-65
2022/09/24 12:51:43;;;;;;;5.20;3.80;;;;;;;;;;621112;231;26580;-65
2022/09/24 12:54:17;;;;;;;5.20;4.50;;;;;;;;;;620464;231;26582;-65
2022/09/24 12:56:46;;;;;;;5.35;4.03;;;;;;;;;;614635;227;26581;-65
2022/09/24 12:59:21;;;;;;;4.57;4.18;;;;;;;;;;617203;231;26824;-65
2022/09/24 13:01:50;;;;;;;4.30;3.90;;;;;;;;;;613816;231;26552;-65
2022/09/24 13:04:23;;;;;;;5.57;4.40;;;;;;;;;;620006;228;26869;-64
2022/09/24 13:06:50;;;;;;;9.63;4.18;;;;;;;;;;617971;231;26581;-64
2022/09/24 13:09:22;;;;;;;4.62;4.20;;;;;;;;;;613519;234;26571;-63
2022/09/24 13:11:51;;;;;;;7.32;4.32;;;;;;;;;;614421;228;27241;-65
2022/09/24 13:14:20;;;;;;;4.97;3.90;;;;;;;;;;611747;234;26651;-66
2022/09/24 13:16:48;;;;;;;7.00;4.15;;;;;;;;;;615370;231;26806;-65
2022/09/24 13:19:17;;;;;;;5.55;4.12;;;;;;;;;;614307;231;26621;-65
2022/09/24 13:21:46;;;;;;;5.87;4.47;;;;;;;;;;616211;231;26619;-65
2022/09/24 13:24:15;;;;;;;6.30;4.12;;;;;;;;;;621382;230;26584;-65
2022/09/24 13:26:44;;;;;;;4.37;3.97;;;;;;;;;;620716;230;26613;-65
2022/09/24 13:29:18;;;;;;;5.30;4.03;;;;;;;;;;616072;233;26567;-65
2022/09/24 13:31:48;;;;;;;5.70;3.90;;;;;;;;;;615974;232;26808;-65
2022/09/24 13:34:19;;;;;;;4.10;3.70;;;;;;;;;;615716;233;26572;-65
2022/09/24 13:36:54;;;;;;;5.65;3.87;;;;;;;;;;615343;230;26572;-64
2022/09/24 13:39:23;;;;;;;4.25;3.80;;;;;;;;;;621252;229;26811;-64
2022/09/24 13:42:08;;;;;;;5.15;4.28;;;;;;;;;;617974;230;27145;-62
2022/09/24 13:44:38;;;;;;;4.25;3.85;;;;;;;;;;616294;230;26633;-64
2022/09/24 13:47:16;;;;;;;7.20;4.15;;;;;;;;;;620721;231;26555;-64
2022/09/24 13:49:45;;;;;;;5.65;4.00;;;;;;;;;;616546;231;26540;-63
2022/09/24 13:52:18;;;;;;;5.85;4.50;;;;;;;;;;614895;233;27116;-64
2022/09/24 13:54:47;;;;;;;5.35;3.92;;;;;;;;;;615447;230;26852;-64
2022/09/24 13:57:26;;;;;;;5.85;3.72;;;;;;;;;;613843;231;26554;-64
2022/09/24 14:00:02;;;;;;;4.22;3.65;;;;;;;;;;612512;231;26571;-63
2022/09/24 14:02:31;;;;;;;5.50;3.92;;;;;;;;;;618121;231;26559;-63
2022/09/24 14:05:00;;;;;;;4.82;3.90;;;;;;;;;;615565;228;26556;-63
2022/09/24 14:07:28;;;;;;;7.53;4.07;;;;;;;;;;615705;233;26776;-63
2022/09/24 14:10:02;;;;;;;3.78;3.37;;;;;;;;;;614413;231;26564;-63
2022/09/24 14:12:31;;;;;;;4.40;3.65;;;;;;;;;;613913;231;26607;-63
2022/09/24 14:15:03;;;;;;;3.58;3.28;;;;;;;;;;612473;235;26822;-63
2022/09/24 14:17:29;;;;;;;5.15;3.60;;;;;;;;;;620325;231;26615;-64
2022/09/24 14:19:58;;;;;;;4.25;3.85;;;;;;;;;;621049;231;26824;-64
2022/09/24 14:22:27;;;;;;;3.80;3.50;;;;;;;;;;621108;231;26619;-64
2022/09/24 14:25:00;;;;;;;4.10;3.70;;;;;;;;;;621292;231;26605;-64
2022/09/24 14:27:29;;;;;;;3.95;3.65;;;;;;;;;;621399;231;26628;-64
2022/09/24 14:29:58;;;;;;;3.87;3.55;;;;;;;;;;621389;231;27018;-63
2022/09/24 14:32:28;;;;;;;5.00;3.67;;;;;;;;;;623113;230;26530;-63
2022/09/24 14:34:57;;;;;;;4.37;3.50;;;;;;;;;;622543;231;26541;-63
2022/09/24 14:37:30;;;;;;;5.68;3.42;;;;;;;;;;621950;231;26795;-64
2022/09/24 14:40:01;;;;;;;4.32;3.90;;;;;;;;;;621759;231;26573;-64
2022/09/24 14:42:30;;;;;;;4.10;3.30;;;;;;;;;;621502;231;26621;-64
2022/09/24 14:44:59;;;;;;;3.65;3.35;;;;;;;;;;621495;231;27504;-64
2022/09/24 14:47:28;;;;;;;3.95;3.65;;;;;;;;;;621533;231;26634;-64
2022/09/24 14:49:57;;;;;;;3.97;3.67;;;;;;;;;;621398;231;26569;-64
2022/09/24 14:52:25;;;;;;;3.55;3.25;;;;;;;;;;621460;231;26558;-64
2022/09/24 14:54:59;;;;;;;3.80;3.50;;;;;;;;;;621323;231;26550;-63
2022/09/24 14:57:28;;;;;;;4.57;3.50;;;;;;;;;;621476;231;26576;-63
2022/09/24 14:59:57;;;;;;;3.28;3.08;;;;;;;;;;621048;231;26566;-63
2022/09/24 15:02:29;;;;;;;3.33;3.03;;;;;;;;;;621526;231;26800;-63
2022/09/24 15:04:57;;;;;;;3.90;3.50;;;;;;;;;;621380;231;26564;-63
2022/09/24 15:07:26;;;;;;;4.25;3.90;;;;;;;;;;621205;231;26842;-63
2022/09/24 15:09:55;;;;;;;3.70;3.40;;;;;;;;;;621056;231;26595;-63
2022/09/24 15:12:29;;;;;;;4.25;3.85;;;;;;;;;;621072;231;26652;-63